Terminal Aerodrome Forecast
Issued by NWS

Current Version | Previous Version | Graphics & Text | Print | Product List | Glossary On
Versions: 1 2 3 4 5 6 7 8 9 10 11 12 13 14 15 16 17
000
FTUS41 KPBZ 262019 AAB
TAFHLG
TAF AMD
KHLG 262019Z 2620/2718 26005KT P6SM VCSH BKN050
     FM262200 26010G18KT P6SM BKN120
     FM270100 27007KT P6SM BKN050
     FM271300 22006KT P6SM FEW250=

USA.gov is the U.S. government's official web portal to all federal, state and local government web resources and services.